Time;durP1;ratioP1;P1;durP2;ratioP2;P2;SDS_P1;SDS_P2;PMS_P1;PMS_P2;Temp;Humidity;BMP_temperature;BMP_pressure;BME280_temperature;BME280_humidity;BME280_pressure;Samples;Min_cycle;Max_cycle;Signal;HPM_P1;HPM_P2
2021/10/15 00:00:51;;;;;;;8.57;5.33;;;;;;;;;;5042989;28;20561;-74
2021/10/15 00:03:17;;;;;;;10.07;5.13;;;;;;;;;;5041599;28;20169;-72
2021/10/15 00:05:42;;;;;;;12.30;5.90;;;;;;;;;;5039641;28;20154;-72
2021/10/15 00:08:08;;;;;;;11.10;5.60;;;;;;;;;;5046851;28;20738;-74
2021/10/15 00:10:33;;;;;;;11.30;5.80;;;;;;;;;;5040678;28;20235;-72
2021/10/15 00:12:58;;;;;;;11.40;6.07;;;;;;;;;;5040971;28;20161;-75
2021/10/15 00:15:24;;;;;;;13.17;6.00;;;;;;;;;;5048922;28;20160;-73
2021/10/15 00:17:49;;;;;;;9.70;5.80;;;;;;;;;;5034843;28;20247;-72
2021/10/15 00:20:14;;;;;;;9.83;5.23;;;;;;;;;;5030871;28;20216;-72
2021/10/15 00:22:40;;;;;;;8.13;4.73;;;;;;;;;;5048318;28;20592;-71
2021/10/15 00:25:06;;;;;;;11.50;4.40;;;;;;;;;;5030996;28;20158;-72
2021/10/15 00:27:31;;;;;;;9.50;4.97;;;;;;;;;;5043123;28;20157;-71
2021/10/15 00:29:56;;;;;;;8.87;5.10;;;;;;;;;;5033137;28;20481;-72
2021/10/15 00:32:22;;;;;;;9.97;5.33;;;;;;;;;;5046883;28;20165;-71
2021/10/15 00:34:48;;;;;;;11.40;5.63;;;;;;;;;;5034334;28;20169;-74
2021/10/15 00:37:17;;;;;;;15.10;5.90;;;;;;;;;;5044776;28;20467;-74
2021/10/15 00:39:42;;;;;;;13.33;5.47;;;;;;;;;;5036945;28;20193;-73
2021/10/15 00:42:07;;;;;;;8.50;4.50;;;;;;;;;;5030258;28;20860;-72
2021/10/15 00:44:35;;;;;;;7.83;5.00;;;;;;;;;;5029926;28;20158;-71
2021/10/15 00:47:01;;;;;;;7.60;4.60;;;;;;;;;;5030646;28;20193;-73
2021/10/15 00:49:26;;;;;;;7.33;4.10;;;;;;;;;;5035805;28;20435;-72
2021/10/15 00:51:51;;;;;;;9.30;3.93;;;;;;;;;;5031753;28;20182;-73
2021/10/15 00:54:17;;;;;;;8.53;4.53;;;;;;;;;;5030397;28;20183;-74
2021/10/15 00:56:43;;;;;;;9.07;3.90;;;;;;;;;;5031757;28;20193;-74
2021/10/15 00:59:09;;;;;;;10.30;3.80;;;;;;;;;;5037622;28;20157;-73
2021/10/15 01:01:34;;;;;;;6.90;4.03;;;;;;;;;;5050811;28;20391;-72
2021/10/15 01:04:00;;;;;;;5.80;3.67;;;;;;;;;;5049668;28;20745;-72
2021/10/15 01:06:26;;;;;;;11.57;5.17;;;;;;;;;;5039926;28;20169;-73
2021/10/15 01:08:51;;;;;;;9.40;4.23;;;;;;;;;;5039166;28;20217;-74
2021/10/15 01:11:17;;;;;;;8.17;3.83;;;;;;;;;;5030792;28;20166;-73
2021/10/15 01:13:42;;;;;;;10.20;3.90;;;;;;;;;;5029633;28;20201;-72
2021/10/15 01:16:09;;;;;;;7.23;4.00;;;;;;;;;;5030689;28;20563;-72
2021/10/15 01:18:35;;;;;;;10.00;3.50;;;;;;;;;;5031773;28;20428;-72
2021/10/15 01:21:01;;;;;;;6.10;3.43;;;;;;;;;;5047198;28;20537;-73
2021/10/15 01:23:26;;;;;;;9.60;4.13;;;;;;;;;;5036165;28;20169;-73
2021/10/15 01:25:53;;;;;;;12.43;4.00;;;;;;;;;;5030640;28;20535;-73
2021/10/15 01:28:19;;;;;;;11.77;3.87;;;;;;;;;;5033474;28;20199;-73
2021/10/15 01:30:44;;;;;;;8.70;4.10;;;;;;;;;;5037092;28;20926;-74
2021/10/15 01:33:10;;;;;;;9.03;4.37;;;;;;;;;;5049798;28;20412;-73
2021/10/15 01:35:35;;;;;;;7.37;4.33;;;;;;;;;;5050176;28;20161;-72
2021/10/15 01:38:00;;;;;;;8.83;4.33;;;;;;;;;;5043268;28;20225;-72
2021/10/15 01:40:26;;;;;;;6.43;3.20;;;;;;;;;;5040536;28;20900;-72
2021/10/15 01:42:54;;;;;;;12.10;3.90;;;;;;;;;;5049186;28;20172;-73
2021/10/15 01:45:23;;;;;;;6.90;4.10;;;;;;;;;;5049647;28;20151;-71
2021/10/15 01:47:48;;;;;;;9.73;4.07;;;;;;;;;;5039237;28;20404;-74
2021/10/15 01:50:13;;;;;;;8.33;4.47;;;;;;;;;;5038790;28;20399;-71
2021/10/15 01:52:39;;;;;;;9.63;3.87;;;;;;;;;;5030646;28;20231;-73
2021/10/15 01:55:05;;;;;;;8.23;4.17;;;;;;;;;;5030632;28;20181;-73
2021/10/15 01:57:31;;;;;;;6.83;3.70;;;;;;;;;;5048455;28;20232;-73
2021/10/15 01:59:56;;;;;;;12.87;4.10;;;;;;;;;;5038118;28;20434;-73
2021/10/15 02:02:21;;;;;;;13.00;4.13;;;;;;;;;;5049584;28;20253;-72
2021/10/15 02:04:46;;;;;;;8.53;4.60;;;;;;;;;;5045266;28;20173;-73
2021/10/15 02:07:12;;;;;;;8.77;4.03;;;;;;;;;;5035686;28;20165;-72
2021/10/15 02:09:37;;;;;;;7.70;4.30;;;;;;;;;;5049582;28;20169;-74
2021/10/15 02:12:03;;;;;;;16.60;4.10;;;;;;;;;;5043777;28;20544;-70
2021/10/15 02:14:28;;;;;;;8.30;3.50;;;;;;;;;;5033621;28;20185;-73
2021/10/15 02:16:54;;;;;;;10.17;4.30;;;;;;;;;;5033722;28;20224;-75
2021/10/15 02:19:19;;;;;;;9.13;3.83;;;;;;;;;;5033676;28;20150;-73
2021/10/15 02:21:45;;;;;;;12.77;4.30;;;;;;;;;;5040917;28;20197;-73
2021/10/15 02:24:11;;;;;;;8.33;4.33;;;;;;;;;;5040514;28;20537;-69
2021/10/15 02:26:36;;;;;;;18.13;5.00;;;;;;;;;;5051692;28;20383;-74
2021/10/15 02:29:02;;;;;;;12.37;4.83;;;;;;;;;;5036076;28;20154;-72
2021/10/15 02:31:28;;;;;;;7.97;3.53;;;;;;;;;;5034598;28;20153;-75
2021/10/15 02:33:54;;;;;;;8.67;4.10;;;;;;;;;;5040081;28;20405;-75
2021/10/15 02:36:19;;;;;;;13.33;4.80;;;;;;;;;;5033476;28;20848;-73
2021/10/15 02:38:44;;;;;;;9.70;4.33;;;;;;;;;;5046861;28;20252;-72
2021/10/15 02:41:10;;;;;;;11.37;4.57;;;;;;;;;;5046324;28;20185;-72
2021/10/15 02:43:35;;;;;;;9.50;4.83;;;;;;;;;;5043607;28;20172;-70
2021/10/15 02:46:00;;;;;;;8.40;4.03;;;;;;;;;;5033182;28;20533;-75
2021/10/15 02:48:25;;;;;;;11.40;5.00;;;;;;;;;;5034187;28;20186;-75
2021/10/15 02:50:51;;;;;;;7.43;4.60;;;;;;;;;;5046361;28;20158;-74
2021/10/15 02:53:16;;;;;;;11.80;4.60;;;;;;;;;;5054218;28;20167;-75
2021/10/15 02:55:41;;;;;;;12.50;5.50;;;;;;;;;;5068648;28;20157;-74
2021/10/15 02:58:07;;;;;;;11.43;4.77;;;;;;;;;;5039715;28;20197;-75
2021/10/15 03:00:32;;;;;;;8.33;4.27;;;;;;;;;;5034708;28;20621;-73
2021/10/15 03:02:57;;;;;;;8.47;4.67;;;;;;;;;;5050647;28;20177;-73
2021/10/15 03:05:22;;;;;;;11.90;5.13;;;;;;;;;;5043482;28;20168;-74
2021/10/15 03:07:48;;;;;;;11.77;6.00;;;;;;;;;;5050786;28;20162;-73
2021/10/15 03:10:13;;;;;;;12.17;5.53;;;;;;;;;;5035393;28;20651;-72
2021/10/15 03:12:39;;;;;;;10.73;5.10;;;;;;;;;;5035124;28;20158;-76
2021/10/15 03:15:06;;;;;;;11.87;5.90;;;;;;;;;;5032966;28;20544;-73
2021/10/15 03:17:31;;;;;;;11.30;5.30;;;;;;;;;;5050530;28;20193;-75
2021/10/15 03:19:57;;;;;;;13.23;5.57;;;;;;;;;;5037539;28;20571;-75
2021/10/15 03:22:22;;;;;;;8.30;5.27;;;;;;;;;;5050857;28;20639;-74
2021/10/15 03:24:47;;;;;;;11.47;5.50;;;;;;;;;;5048252;28;20590;-72
2021/10/15 03:27:13;;;;;;;17.00;5.90;;;;;;;;;;5039283;28;20235;-76
2021/10/15 03:29:39;;;;;;;11.90;6.10;;;;;;;;;;5036376;28;20188;-75
2021/10/15 03:32:05;;;;;;;14.50;6.00;;;;;;;;;;5034173;28;20170;-73
2021/10/15 03:34:30;;;;;;;9.20;5.00;;;;;;;;;;5033432;28;20415;-73
2021/10/15 03:36:55;;;;;;;10.30;5.17;;;;;;;;;;5037869;28;20688;-70
2021/10/15 03:39:21;;;;;;;10.53;5.93;;;;;;;;;;5048288;28;20243;-73
2021/10/15 03:41:46;;;;;;;11.63;4.70;;;;;;;;;;5048528;28;20260;-74
2021/10/15 03:44:11;;;;;;;10.10;5.40;;;;;;;;;;5046794;28;20167;-74
2021/10/15 03:46:37;;;;;;;10.67;4.80;;;;;;;;;;5036176;28;20283;-74
2021/10/15 03:49:02;;;;;;;10.50;4.60;;;;;;;;;;5044696;28;20168;-75
2021/10/15 03:51:27;;;;;;;8.87;4.30;;;;;;;;;;5046761;28;20163;-72
2021/10/15 03:53:53;;;;;;;11.00;4.60;;;;;;;;;;5032454;28;20158;-74
2021/10/15 03:56:18;;;;;;;9.93;6.00;;;;;;;;;;5033642;28;20191;-74
2021/10/15 03:58:43;;;;;;;8.73;4.40;;;;;;;;;;5034188;28;20557;-74
2021/10/15 04:01:09;;;;;;;10.13;4.67;;;;;;;;;;5041306;28;20643;-73
2021/10/15 04:03:34;;;;;;;9.37;4.50;;;;;;;;;;5042753;28;20224;-74
2021/10/15 04:05:59;;;;;;;18.73;4.77;;;;;;;;;;5031873;28;20154;-73
2021/10/15 04:08:25;;;;;;;10.17;4.80;;;;;;;;;;5038816;28;20264;-73
2021/10/15 04:10:50;;;;;;;11.57;5.00;;;;;;;;;;5051529;28;20153;-72
2021/10/15 04:13:15;;;;;;;14.00;5.50;;;;;;;;;;5051746;28;20162;-73
2021/10/15 04:15:41;;;;;;;11.23;5.50;;;;;;;;;;5031786;28;20158;-71
2021/10/15 04:18:06;;;;;;;12.73;5.30;;;;;;;;;;5041145;28;20223;-74
2021/10/15 04:20:31;;;;;;;12.67;5.37;;;;;;;;;;5036534;28;20280;-74
2021/10/15 04:22:57;;;;;;;14.17;6.10;;;;;;;;;;5042320;28;20260;-75
2021/10/15 04:25:22;;;;;;;14.00;6.17;;;;;;;;;;5041810;28;20165;-71
2021/10/15 04:27:47;;;;;;;11.77;5.43;;;;;;;;;;5038383;28;20174;-73
2021/10/15 04:30:13;;;;;;;16.83;7.00;;;;;;;;;;5040957;28;20162;-73
2021/10/15 04:32:38;;;;;;;10.10;5.73;;;;;;;;;;5029578;28;20177;-73
2021/10/15 04:35:04;;;;;;;15.03;5.83;;;;;;;;;;5035573;28;20154;-71
2021/10/15 04:37:29;;;;;;;14.70;4.97;;;;;;;;;;5036983;28;20282;-71
2021/10/15 04:39:54;;;;;;;9.00;4.70;;;;;;;;;;5049889;28;20236;-73
2021/10/15 04:42:20;;;;;;;20.67;7.13;;;;;;;;;;5050645;28;20152;-71
2021/10/15 04:44:45;;;;;;;14.70;5.10;;;;;;;;;;5049944;28;20620;-73
2021/10/15 04:47:11;;;;;;;23.07;5.73;;;;;;;;;;5047325;28;20165;-72
2021/10/15 04:49:36;;;;;;;16.40;7.13;;;;;;;;;;5034474;28;20512;-72
2021/10/15 04:52:01;;;;;;;12.13;5.87;;;;;;;;;;5046138;28;20167;-72
2021/10/15 04:54:27;;;;;;;14.50;5.27;;;;;;;;;;5033347;28;20248;-72
2021/10/15 04:56:52;;;;;;;19.73;6.27;;;;;;;;;;5038636;28;20201;-72
2021/10/15 04:59:18;;;;;;;11.03;6.17;;;;;;;;;;5033535;28;20158;-74
2021/10/15 05:01:43;;;;;;;15.80;6.17;;;;;;;;;;5050469;28;20252;-72
2021/10/15 05:04:08;;;;;;;11.67;5.93;;;;;;;;;;5049945;28;20256;-73
2021/10/15 05:06:34;;;;;;;14.60;5.70;;;;;;;;;;5038008;28;20569;-73
2021/10/15 05:11:33;;;;;;;10.97;5.63;;;;;;;;;;5045093;28;20156;-74
2021/10/15 05:14:00;;;;;;;20.20;5.83;;;;;;;;;;5029823;28;20468;-72
2021/10/15 05:16:25;;;;;;;14.30;7.27;;;;;;;;;;5043209;28;20244;-74
2021/10/15 05:18:50;;;;;;;15.90;7.50;;;;;;;;;;5049828;28;20396;-73
2021/10/15 05:21:16;;;;;;;13.90;6.43;;;;;;;;;;5049502;28;20149;-74
2021/10/15 05:23:41;;;;;;;16.33;6.30;;;;;;;;;;5029538;28;20551;-74
2021/10/15 05:26:07;;;;;;;14.60;5.50;;;;;;;;;;5029926;28;20161;-72
2021/10/15 05:28:32;;;;;;;17.83;6.03;;;;;;;;;;5029857;28;20272;-73
2021/10/15 05:30:57;;;;;;;26.43;6.90;;;;;;;;;;5041166;28;20540;-75
2021/10/15 05:33:23;;;;;;;14.10;6.50;;;;;;;;;;5034420;28;20158;-72
2021/10/15 05:35:48;;;;;;;11.27;6.30;;;;;;;;;;5029441;28;20169;-72
2021/10/15 05:38:14;;;;;;;14.43;7.17;;;;;;;;;;5029785;28;20251;-74
2021/10/15 05:40:39;;;;;;;15.60;5.60;;;;;;;;;;5029865;28;20581;-72
2021/10/15 05:43:05;;;;;;;10.30;5.87;;;;;;;;;;5039877;28;20256;-73
2021/10/15 05:45:30;;;;;;;13.83;7.43;;;;;;;;;;5030334;28;20162;-74
2021/10/15 05:47:55;;;;;;;13.03;6.20;;;;;;;;;;5028266;28;20173;-75
2021/10/15 05:50:21;;;;;;;16.17;6.90;;;;;;;;;;5035377;28;20209;-76
2021/10/15 05:52:49;;;;;;;16.03;7.30;;;;;;;;;;5049211;28;20240;-74
2021/10/15 06:00:23;;;;;;;14.00;6.50;;;;;;;;;;5050057;28;20157;-77
2021/10/15 06:02:49;;;;;;;16.47;6.70;;;;;;;;;;5037930;28;20397;-75
2021/10/15 06:15:51;;;;;;;12.43;6.50;;;;;;;;;;5037529;28;20391;-72
2021/10/15 06:18:19;;;;;;;15.53;7.60;;;;;;;;;;5029096;28;21089;-74
2021/10/15 06:20:45;;;;;;;26.67;9.27;;;;;;;;;;5028870;28;20196;-71
2021/10/15 06:23:10;;;;;;;13.10;7.40;;;;;;;;;;5029557;28;20393;-73
2021/10/15 06:25:36;;;;;;;17.10;6.47;;;;;;;;;;5028309;28;20161;-70
2021/10/15 06:28:02;;;;;;;23.60;7.90;;;;;;;;;;5035436;28;20608;-70
2021/10/15 06:30:31;;;;;;;22.03;8.20;;;;;;;;;;5048372;28;20157;-73
2021/10/15 06:32:56;;;;;;;15.93;7.87;;;;;;;;;;5042739;28;20889;-74
2021/10/15 06:35:22;;;;;;;15.17;8.27;;;;;;;;;;5037673;28;20405;-72
2021/10/15 06:37:47;;;;;;;15.00;7.40;;;;;;;;;;5046482;28;20243;-73
2021/10/15 06:40:13;;;;;;;18.10;7.97;;;;;;;;;;5048160;28;20168;-72
2021/10/15 06:42:38;;;;;;;11.97;6.90;;;;;;;;;;5046894;28;20570;-71
2021/10/15 06:45:04;;;;;;;19.27;9.40;;;;;;;;;;5054698;28;20170;-70
2021/10/15 06:47:29;;;;;;;18.57;9.67;;;;;;;;;;5049479;28;20230;-69
2021/10/15 06:49:55;;;;;;;13.60;6.93;;;;;;;;;;5031912;28;20241;-74
2021/10/15 06:52:20;;;;;;;18.13;9.20;;;;;;;;;;5032741;28;20150;-71
2021/10/15 06:54:46;;;;;;;14.10;7.10;;;;;;;;;;5032447;28;20168;-72
2021/10/15 06:57:11;;;;;;;33.37;10.43;;;;;;;;;;5032747;28;20698;-71
2021/10/15 06:59:36;;;;;;;22.20;10.00;;;;;;;;;;5048863;28;20236;-72
2021/10/15 07:02:02;;;;;;;20.07;8.77;;;;;;;;;;5051346;28;20181;-73
2021/10/15 07:04:27;;;;;;;12.47;7.70;;;;;;;;;;5039102;28;20157;-70
2021/10/15 07:06:52;;;;;;;17.50;10.17;;;;;;;;;;5032468;28;20158;-74
2021/10/15 07:09:18;;;;;;;17.80;9.17;;;;;;;;;;5041429;28;20607;-72
2021/10/15 07:11:44;;;;;;;19.67;7.57;;;;;;;;;;5054298;28;20211;-72
2021/10/15 07:14:10;;;;;;;23.60;9.10;;;;;;;;;;5052009;28;20635;-76
2021/10/15 07:16:36;;;;;;;19.20;9.40;;;;;;;;;;5052623;28;20531;-73
2021/10/15 07:19:01;;;;;;;22.70;9.63;;;;;;;;;;5052520;28;20823;-70
2021/10/15 07:21:27;;;;;;;22.03;8.80;;;;;;;;;;5052129;28;20592;-70
2021/10/15 07:23:54;;;;;;;17.97;9.27;;;;;;;;;;5052067;28;20219;-74
2021/10/15 07:26:19;;;;;;;16.20;9.13;;;;;;;;;;5052072;28;20256;-73
2021/10/15 07:28:44;;;;;;;15.90;8.67;;;;;;;;;;5033294;28;20404;-71
2021/10/15 07:31:10;;;;;;;19.07;12.33;;;;;;;;;;5061587;28;20325;-72
2021/10/15 07:33:35;;;;;;;18.10;9.13;;;;;;;;;;5052144;28;20173;-74
2021/10/15 07:36:00;;;;;;;23.50;10.20;;;;;;;;;;5051966;28;20165;-76
2021/10/15 07:38:25;;;;;;;20.87;8.37;;;;;;;;;;5054335;28;20172;-73
2021/10/15 07:40:52;;;;;;;19.33;9.33;;;;;;;;;;5068949;28;20167;-75
2021/10/15 07:43:17;;;;;;;18.00;9.33;;;;;;;;;;5051071;28;20207;-73
2021/10/15 07:45:43;;;;;;;19.57;9.77;;;;;;;;;;5045422;28;20405;-75
2021/10/15 07:48:08;;;;;;;22.53;11.03;;;;;;;;;;5035460;28;20149;-73
2021/10/15 07:50:33;;;;;;;15.93;9.23;;;;;;;;;;5051363;28;20623;-72
2021/10/15 07:52:59;;;;;;;22.47;9.70;;;;;;;;;;5051316;28;20580;-71
2021/10/15 07:55:24;;;;;;;20.67;14.90;;;;;;;;;;5049534;28;20153;-72
2021/10/15 07:57:49;;;;;;;47.63;31.43;;;;;;;;;;5051001;28;20181;-71
2021/10/15 08:00:16;;;;;;;20.27;10.00;;;;;;;;;;5035829;28;20154;-71
2021/10/15 08:02:41;;;;;;;19.97;9.83;;;;;;;;;;5050377;28;20246;-72
2021/10/15 08:05:07;;;;;;;15.20;9.10;;;;;;;;;;5037914;28;20904;-73
2021/10/15 08:07:32;;;;;;;18.37;9.13;;;;;;;;;;5040657;28;20609;-75
2021/10/15 08:09:58;;;;;;;25.13;11.00;;;;;;;;;;5041331;28;20158;-72
2021/10/15 08:12:23;;;;;;;17.10;9.77;;;;;;;;;;5030998;28;20154;-72
2021/10/15 08:14:48;;;;;;;18.20;9.13;;;;;;;;;;5041563;28;20248;-71
2021/10/15 08:17:14;;;;;;;17.33;9.70;;;;;;;;;;5049844;28;20204;-74
2021/10/15 08:19:39;;;;;;;16.67;8.03;;;;;;;;;;5049769;28;20185;-73
2021/10/15 08:22:05;;;;;;;14.40;8.57;;;;;;;;;;5050592;28;20157;-72
2021/10/15 08:24:30;;;;;;;20.60;10.80;;;;;;;;;;5050458;28;20226;-73
2021/10/15 08:26:56;;;;;;;22.60;10.60;;;;;;;;;;5039379;28;20158;-74
2021/10/15 08:29:23;;;;;;;17.60;9.80;;;;;;;;;;5035517;28;20256;-72
2021/10/15 08:31:50;;;;;;;26.43;11.10;;;;;;;;;;5048795;28;20411;-73
2021/10/15 08:34:17;;;;;;;18.30;10.57;;;;;;;;;;5041628;28;20958;-74
2021/10/15 08:36:44;;;;;;;19.67;10.37;;;;;;;;;;5046712;28;20479;-72
2021/10/15 08:39:09;;;;;;;19.60;9.70;;;;;;;;;;5031040;28;20392;-71
2021/10/15 08:41:35;;;;;;;23.83;13.33;;;;;;;;;;5037032;28;20750;-72
2021/10/15 08:44:01;;;;;;;30.03;16.60;;;;;;;;;;5051936;28;20169;-74
2021/10/15 08:46:26;;;;;;;40.27;21.63;;;;;;;;;;5037553;28;20168;-74
2021/10/15 08:48:52;;;;;;;22.73;10.30;;;;;;;;;;5043723;28;20170;-71
2021/10/15 08:51:19;;;;;;;29.07;10.27;;;;;;;;;;5041012;28;20154;-75
2021/10/15 08:53:48;;;;;;;24.03;10.13;;;;;;;;;;5029807;28;20186;-74
2021/10/15 08:56:17;;;;;;;19.50;9.47;;;;;;;;;;5046863;28;20418;-73
2021/10/15 08:58:42;;;;;;;25.77;11.60;;;;;;;;;;5048901;28;20472;-71
2021/10/15 09:01:08;;;;;;;17.93;9.77;;;;;;;;;;5050002;28;20503;-71
2021/10/15 09:03:33;;;;;;;14.67;9.50;;;;;;;;;;5049959;28;20247;-72
2021/10/15 09:06:00;;;;;;;16.23;9.20;;;;;;;;;;5049792;28;20145;-72
2021/10/15 09:08:41;;;;;;;23.40;10.57;;;;;;;;;;5049252;28;20214;-71
2021/10/15 09:11:21;;;;;;;20.30;9.47;;;;;;;;;;5048261;28;20439;-71
2021/10/15 09:13:46;;;;;;;19.90;11.10;;;;;;;;;;5036290;28;20774;-72
2021/10/15 09:16:12;;;;;;;27.07;10.83;;;;;;;;;;5047811;28;20420;-73
2021/10/15 09:18:41;;;;;;;32.60;11.10;;;;;;;;;;5032283;28;20548;-75
2021/10/15 09:21:13;;;;;;;24.47;9.50;;;;;;;;;;5034636;28;20158;-73
2021/10/15 09:24:01;;;;;;;24.10;10.50;;;;;;;;;;5064871;28;20440;-71
2021/10/15 09:26:26;;;;;;;31.93;11.83;;;;;;;;;;5058771;28;20396;-71
2021/10/15 09:28:51;;;;;;;18.90;10.57;;;;;;;;;;5059433;28;20504;-70
2021/10/15 09:31:16;;;;;;;20.00;10.27;;;;;;;;;;5069411;28;20404;-71
2021/10/15 09:33:52;;;;;;;17.93;9.53;;;;;;;;;;5068476;28;20165;-73
2021/10/15 09:36:19;;;;;;;19.00;9.70;;;;;;;;;;5069193;28;20367;-73
2021/10/15 09:38:44;;;;;;;27.23;10.80;;;;;;;;;;5057999;28;20406;-72
2021/10/15 09:41:29;;;;;;;18.23;10.50;;;;;;;;;;5056235;28;20394;-72
2021/10/15 09:43:55;;;;;;;25.30;10.20;;;;;;;;;;5047556;28;20176;-72
2021/10/15 09:46:21;;;;;;;17.93;10.83;;;;;;;;;;5063245;28;20413;-72
2021/10/15 09:48:51;;;;;;;21.60;10.50;;;;;;;;;;5059724;28;20153;-73
2021/10/15 09:51:19;;;;;;;23.40;9.60;;;;;;;;;;5035214;28;20404;-75
2021/10/15 09:54:03;;;;;;;30.70;12.10;;;;;;;;;;5046129;28;20419;-73
2021/10/15 09:56:45;;;;;;;22.30;11.10;;;;;;;;;;5049316;28;20458;-73
2021/10/15 09:59:10;;;;;;;19.63;9.90;;;;;;;;;;5045510;28;20403;-73
2021/10/15 10:01:36;;;;;;;20.87;9.33;;;;;;;;;;5035175;28;20411;-73
2021/10/15 10:04:03;;;;;;;24.43;10.30;;;;;;;;;;5044029;28;20158;-72
2021/10/15 10:06:29;;;;;;;27.40;10.50;;;;;;;;;;5046559;28;20157;-72
2021/10/15 10:08:55;;;;;;;23.27;10.13;;;;;;;;;;5047549;28;20787;-74
2021/10/15 10:11:21;;;;;;;23.67;10.40;;;;;;;;;;5067655;28;20220;-73
2021/10/15 10:13:46;;;;;;;23.33;10.93;;;;;;;;;;5053228;28;20889;-74
2021/10/15 10:16:11;;;;;;;25.00;10.10;;;;;;;;;;5049262;28;20183;-72
2021/10/15 10:18:42;;;;;;;16.87;9.03;;;;;;;;;;5036515;28;20625;-76
2021/10/15 10:21:09;;;;;;;17.27;8.50;;;;;;;;;;5046855;28;20161;-76
2021/10/15 10:23:50;;;;;;;32.83;9.50;;;;;;;;;;5052751;28;20402;-75
2021/10/15 10:26:21;;;;;;;15.60;8.90;;;;;;;;;;5051806;28;20391;-73
2021/10/15 10:29:06;;;;;;;18.57;9.33;;;;;;;;;;5045571;28;20442;-75
2021/10/15 10:31:31;;;;;;;19.47;8.90;;;;;;;;;;5062705;28;20411;-74
2021/10/15 10:34:00;;;;;;;16.90;7.63;;;;;;;;;;5035575;28;20871;-75
2021/10/15 10:36:27;;;;;;;15.77;9.13;;;;;;;;;;5047079;28;20224;-74
2021/10/15 10:38:53;;;;;;;17.70;8.67;;;;;;;;;;5042958;28;20858;-77
2021/10/15 10:41:20;;;;;;;17.40;8.10;;;;;;;;;;5033873;28;20922;-77
2021/10/15 10:43:45;;;;;;;17.53;10.33;;;;;;;;;;5032693;28;20158;-80
2021/10/15 10:46:10;;;;;;;19.67;10.30;;;;;;;;;;5031921;28;20903;-80
2021/10/15 10:48:48;;;;;;;21.73;8.60;;;;;;;;;;5033589;28;20158;-79
2021/10/15 10:51:14;;;;;;;15.57;7.83;;;;;;;;;;5035043;28;20542;-77
2021/10/15 10:53:58;;;;;;;22.47;8.30;;;;;;;;;;5044486;28;20411;-73
2021/10/15 10:56:38;;;;;;;15.30;8.17;;;;;;;;;;5052025;28;20149;-76
2021/10/15 10:59:16;;;;;;;16.63;7.80;;;;;;;;;;5051574;28;20446;-77
2021/10/15 11:01:47;;;;;;;20.30;9.80;;;;;;;;;;5052149;28;20372;-78
2021/10/15 11:04:42;;;;;;;15.40;8.73;;;;;;;;;;5051894;28;20395;-73
2021/10/15 11:07:17;;;;;;;20.80;7.50;;;;;;;;;;5044485;28;20432;-73
2021/10/15 11:09:48;;;;;;;20.57;7.63;;;;;;;;;;5061759;28;20920;-75
2021/10/15 11:12:20;;;;;;;22.23;8.30;;;;;;;;;;5056640;28;20543;-75
2021/10/15 11:14:55;;;;;;;19.73;8.90;;;;;;;;;;5062799;28;20399;-72
2021/10/15 11:17:52;;;;;;;25.67;9.37;;;;;;;;;;5070589;28;20767;-75
2021/10/15 11:20:22;;;;;;;16.37;8.77;;;;;;;;;;5070501;28;20438;-75
2021/10/15 11:22:51;;;;;;;13.47;6.80;;;;;;;;;;5071307;28;20415;-74
2021/10/15 11:25:17;;;;;;;20.00;7.80;;;;;;;;;;5066470;28;20477;-72
2021/10/15 11:27:42;;;;;;;16.57;9.00;;;;;;;;;;5056538;28;20930;-74
2021/10/15 11:30:09;;;;;;;21.80;8.33;;;;;;;;;;5051099;28;20172;-75
2021/10/15 11:32:42;;;;;;;18.33;7.60;;;;;;;;;;5055211;28;20183;-75
2021/10/15 11:35:13;;;;;;;16.33;8.13;;;;;;;;;;5065292;28;20418;-72
2021/10/15 11:38:18;;;;;;;17.40;8.20;;;;;;;;;;5039599;28;20479;-73
2021/10/15 11:40:44;;;;;;;16.73;7.83;;;;;;;;;;5048767;28;20430;-76
2021/10/15 11:43:16;;;;;;;17.67;7.97;;;;;;;;;;5048924;28;20823;-74
2021/10/15 11:45:42;;;;;;;17.97;7.20;;;;;;;;;;5070948;28;20411;-75
2021/10/15 11:48:18;;;;;;;15.60;7.47;;;;;;;;;;5070814;28;20386;-76
2021/10/15 11:50:43;;;;;;;16.73;7.70;;;;;;;;;;5069841;28;20895;-76
2021/10/15 11:53:10;;;;;;;22.00;8.87;;;;;;;;;;5056649;28;20978;-73
2021/10/15 11:55:37;;;;;;;19.13;8.40;;;;;;;;;;5057748;28;20176;-72
2021/10/15 11:58:19;;;;;;;19.37;9.20;;;;;;;;;;5068366;28;21056;-74
2021/10/15 12:00:57;;;;;;;18.77;8.90;;;;;;;;;;5031903;28;20391;-74
2021/10/15 12:03:32;;;;;;;15.20;8.73;;;;;;;;;;5069335;28;20395;-73
2021/10/15 12:06:18;;;;;;;19.53;8.60;;;;;;;;;;5070009;28;20390;-74
2021/10/15 12:08:46;;;;;;;20.63;7.90;;;;;;;;;;5055788;28;20758;-74
2021/10/15 12:11:14;;;;;;;14.67;7.00;;;;;;;;;;5050252;28;20372;-74
2021/10/15 12:13:40;;;;;;;17.17;7.17;;;;;;;;;;5038501;28;20440;-72
2021/10/15 12:16:17;;;;;;;19.10;8.37;;;;;;;;;;5033675;28;20944;-74
2021/10/15 12:18:42;;;;;;;19.80;8.07;;;;;;;;;;5044696;28;20192;-76
2021/10/15 12:21:12;;;;;;;14.27;7.07;;;;;;;;;;5049912;28;20404;-76
2021/10/15 12:23:53;;;;;;;12.80;6.80;;;;;;;;;;5032310;28;20161;-72
2021/10/15 12:26:19;;;;;;;17.03;7.47;;;;;;;;;;5030358;28;20389;-74
2021/10/15 12:28:44;;;;;;;23.37;9.10;;;;;;;;;;5030153;28;20385;-74
2021/10/15 12:31:23;;;;;;;22.17;14.30;;;;;;;;;;5032025;28;20400;-79
2021/10/15 12:34:11;;;;;;;20.70;7.70;;;;;;;;;;5035744;28;20161;-75
2021/10/15 12:36:38;;;;;;;35.93;9.00;;;;;;;;;;5032703;28;20686;-76
2021/10/15 12:39:23;;;;;;;15.77;8.63;;;;;;;;;;5032334;28;20426;-77
2021/10/15 12:41:50;;;;;;;15.47;8.03;;;;;;;;;;5067799;28;20738;-73
2021/10/15 12:44:19;;;;;;;19.63;8.40;;;;;;;;;;5062384;28;20470;-74
2021/10/15 12:46:59;;;;;;;15.37;6.90;;;;;;;;;;5066207;28;20383;-75
2021/10/15 12:49:24;;;;;;;13.50;7.47;;;;;;;;;;5069527;28;20422;-74
2021/10/15 12:51:50;;;;;;;17.00;7.67;;;;;;;;;;5068957;28;20409;-72
2021/10/15 12:54:34;;;;;;;24.67;17.03;;;;;;;;;;5067857;28;20707;-76
2021/10/15 12:57:09;;;;;;;31.67;19.90;;;;;;;;;;5041711;28;20228;-75
2021/10/15 12:59:35;;;;;;;16.83;7.70;;;;;;;;;;5050254;28;20748;-75
2021/10/15 13:02:08;;;;;;;19.27;8.90;;;;;;;;;;5060704;28;20474;-74
2021/10/15 13:04:34;;;;;;;13.57;8.13;;;;;;;;;;5070077;28;20172;-73
2021/10/15 13:06:59;;;;;;;19.30;8.80;;;;;;;;;;5070302;28;20813;-73
2021/10/15 13:09:25;;;;;;;14.60;7.40;;;;;;;;;;5069205;28;20171;-73
2021/10/15 13:11:50;;;;;;;17.87;7.33;;;;;;;;;;5070027;28;20149;-74
2021/10/15 13:14:16;;;;;;;29.30;7.60;;;;;;;;;;5067408;28;20276;-76
2021/10/15 13:16:42;;;;;;;15.73;7.27;;;;;;;;;;5050186;28;20203;-74
2021/10/15 13:19:07;;;;;;;19.90;8.77;;;;;;;;;;5048464;28;20535;-77
2021/10/15 13:21:33;;;;;;;24.53;7.80;;;;;;;;;;5052078;28;20149;-73
2021/10/15 13:24:01;;;;;;;15.93;7.00;;;;;;;;;;5070304;28;20573;-74
2021/10/15 13:26:26;;;;;;;21.73;9.13;;;;;;;;;;5069753;28;20398;-74
2021/10/15 13:28:51;;;;;;;17.63;7.40;;;;;;;;;;5069463;28;20145;-74
2021/10/15 13:31:17;;;;;;;15.33;8.40;;;;;;;;;;5069362;28;20155;-79
2021/10/15 13:33:42;;;;;;;26.37;10.00;;;;;;;;;;5065103;28;20156;-74
2021/10/15 13:36:07;;;;;;;14.83;7.23;;;;;;;;;;5068811;28;20317;-74
2021/10/15 13:38:32;;;;;;;16.73;7.43;;;;;;;;;;5067458;28;20203;-76
2021/10/15 13:44:13;;;;;;;19.77;8.10;;;;;;;;;;5069313;28;20169;-76
2021/10/15 13:51:24;;;;;;;14.23;8.43;;;;;;;;;;5069097;28;20528;-81
2021/10/15 13:53:49;;;;;;;18.70;8.53;;;;;;;;;;5066628;28;20477;-75
2021/10/15 13:56:16;;;;;;;16.33;8.10;;;;;;;;;;5058859;28;20164;-78
2021/10/15 13:58:44;;;;;;;20.63;8.37;;;;;;;;;;5051539;28;20154;-79
2021/10/15 14:01:34;;;;;;;15.63;7.70;;;;;;;;;;5050196;28;20394;-77
2021/10/15 14:06:23;;;;;;;19.07;8.77;;;;;;;;;;5060436;28;20402;-73
2021/10/15 14:08:48;;;;;;;25.93;7.27;;;;;;;;;;5074111;28;20386;-73
2021/10/15 14:11:16;;;;;;;13.77;8.63;;;;;;;;;;5074379;28;20163;-75
2021/10/15 14:13:42;;;;;;;23.83;9.10;;;;;;;;;;5055599;28;20165;-75
2021/10/15 14:16:07;;;;;;;16.17;7.80;;;;;;;;;;5054328;28;20410;-71
2021/10/15 14:18:32;;;;;;;29.67;8.47;;;;;;;;;;5072639;28;20228;-70
2021/10/15 14:20:59;;;;;;;18.53;8.53;;;;;;;;;;5072438;28;20618;-78
2021/10/15 14:23:25;;;;;;;21.00;8.50;;;;;;;;;;5072297;28;20398;-70
2021/10/15 14:25:50;;;;;;;16.30;7.80;;;;;;;;;;5072495;28;20152;-73
2021/10/15 14:28:15;;;;;;;16.50;7.50;;;;;;;;;;5072201;28;20614;-73
2021/10/15 14:30:41;;;;;;;16.43;7.10;;;;;;;;;;5042464;28;20176;-76
2021/10/15 14:33:06;;;;;;;20.10;10.10;;;;;;;;;;5043828;28;20259;-75
2021/10/15 14:35:32;;;;;;;19.40;11.07;;;;;;;;;;5032288;28;20158;-75
2021/10/15 14:37:57;;;;;;;22.30;8.70;;;;;;;;;;5032237;28;20241;-74
2021/10/15 14:40:22;;;;;;;17.40;8.57;;;;;;;;;;5032298;28;20154;-73
2021/10/15 14:42:48;;;;;;;20.23;8.43;;;;;;;;;;5041972;28;20623;-75
2021/10/15 14:45:14;;;;;;;17.23;7.97;;;;;;;;;;5052143;28;20244;-77
2021/10/15 14:47:42;;;;;;;17.43;7.70;;;;;;;;;;5034491;28;20231;-77
2021/10/15 14:50:08;;;;;;;12.07;6.93;;;;;;;;;;5033701;28;20405;-72
2021/10/15 14:52:33;;;;;;;18.90;7.60;;;;;;;;;;5034957;28;20465;-76
2021/10/15 14:54:58;;;;;;;13.90;7.20;;;;;;;;;;5035857;28;20216;-72
2021/10/15 14:57:24;;;;;;;22.57;8.77;;;;;;;;;;5050309;28;20220;-73
2021/10/15 14:59:49;;;;;;;13.27;7.60;;;;;;;;;;5047116;28;20248;-74